Time;durP1;ratioP1;P1;durP2;ratioP2;P2;SDS_P1;SDS_P2;PMS_P1;PMS_P2;Temp;Humidity;BMP_temperature;BMP_pressure;BME280_temperature;BME280_humidity;BME280_pressure;Samples;Min_cycle;Max_cycle;Signal;HPM_P1;HPM_P2
2021/03/16 00:00:41;;;;;;;11.10;1.83;;;;;;;2.56;100.00;101071.13;5003929;28;20030;-67
2021/03/16 00:03:06;;;;;;;10.73;2.20;;;;;;;2.69;100.00;101077.66;5009206;28;20088;-67
2021/03/16 00:05:32;;;;;;;12.07;1.97;;;;;;;2.66;100.00;101077.50;5003388;28;20855;-67
2021/03/16 00:07:57;;;;;;;19.80;2.13;;;;;;;2.65;100.00;101080.91;5002468;28;20025;-67
2021/03/16 00:10:23;;;;;;;18.73;2.17;;;;;;;2.62;100.00;101083.38;5005443;28;20105;-67
2021/03/16 00:12:48;;;;;;;12.93;2.40;;;;;;;2.53;100.00;101081.31;5003222;28;20459;-67
2021/03/16 00:15:14;;;;;;;13.00;3.27;;;;;;;2.55;100.00;101089.13;5008222;28;20029;-67
2021/03/16 00:17:41;;;;;;;15.17;2.77;;;;;;;2.50;100.00;101088.06;5003557;28;20088;-67
2021/03/16 00:20:07;;;;;;;13.27;2.20;;;;;;;2.49;100.00;101092.34;5001438;28;20033;-67
2021/03/16 00:22:32;;;;;;;10.40;2.17;;;;;;;2.52;100.00;101096.75;5003362;28;20285;-67
2021/03/16 00:24:58;;;;;;;13.97;2.57;;;;;;;2.48;100.00;101108.66;5006868;28;20277;-67
2021/03/16 00:27:23;;;;;;;7.97;2.30;;;;;;;2.48;100.00;101100.03;5002379;28;20032;-67
2021/03/16 00:29:49;;;;;;;11.03;1.60;;;;;;;2.52;100.00;101095.03;5003547;28;20029;-67
2021/03/16 00:32:14;;;;;;;16.33;1.80;;;;;;;2.53;100.00;101098.50;5001352;28;20036;-67
2021/03/16 00:34:39;;;;;;;12.47;1.90;;;;;;;2.49;100.00;101102.66;5004893;28;20456;-67
2021/03/16 00:37:05;;;;;;;8.17;2.37;;;;;;;2.53;100.00;101106.25;4998919;28;20030;-67
2021/03/16 00:39:30;;;;;;;17.97;2.47;;;;;;;2.47;100.00;101101.72;4998760;28;20351;-67
2021/03/16 00:41:56;;;;;;;9.00;1.67;;;;;;;2.47;100.00;101111.16;5008165;28;20026;-67
2021/03/16 00:44:21;;;;;;;11.03;1.97;;;;;;;2.37;100.00;101109.03;5002120;28;20046;-67
2021/03/16 00:46:46;;;;;;;8.73;2.17;;;;;;;2.41;100.00;101116.06;5003614;28;20046;-67
2021/03/16 00:49:12;;;;;;;11.93;2.23;;;;;;;2.31;100.00;101115.72;5006095;28;20037;-67
2021/03/16 00:51:37;;;;;;;13.87;2.20;;;;;;;2.34;100.00;101115.84;4998288;28;20038;-67
2021/03/16 00:54:03;;;;;;;11.73;2.43;;;;;;;2.34;100.00;101115.84;5002794;28;20521;-67
2021/03/16 00:56:28;;;;;;;12.57;3.17;;;;;;;2.33;100.00;101126.09;5004113;28;20115;-67
2021/03/16 00:58:54;;;;;;;17.30;3.47;;;;;;;2.31;100.00;101130.31;5001750;28;20029;-67
2021/03/16 01:01:19;;;;;;;9.77;2.07;;;;;;;2.33;100.00;101124.38;5003926;28;20172;-67
2021/03/16 01:03:45;;;;;;;18.33;2.80;;;;;;;2.28;100.00;101136.19;5002606;28;20045;-67
2021/03/16 01:06:10;;;;;;;18.03;2.83;;;;;;;2.30;100.00;101134.59;5000328;28;20042;-67
2021/03/16 01:08:38;;;;;;;22.47;2.73;;;;;;;2.28;100.00;101130.16;4998458;28;20049;-67
2021/03/16 01:11:03;;;;;;;9.10;2.40;;;;;;;2.25;100.00;101130.91;5000711;28;20044;-67
2021/03/16 01:13:31;;;;;;;10.90;2.30;;;;;;;2.26;100.00;101135.25;5002069;28;20309;-67
2021/03/16 01:15:57;;;;;;;15.67;2.60;;;;;;;2.13;100.00;101133.00;5001118;28;20297;-67
2021/03/16 01:18:22;;;;;;;13.40;2.50;;;;;;;2.11;100.00;101142.38;5002619;28;20611;-67
2021/03/16 01:20:48;;;;;;;6.93;2.10;;;;;;;2.08;100.00;101142.25;5003136;28;20034;-67
2021/03/16 01:23:13;;;;;;;24.87;3.47;;;;;;;2.14;100.00;101137.31;5004667;28;20034;-67
2021/03/16 01:25:39;;;;;;;12.27;2.57;;;;;;;2.16;100.00;101145.13;4999893;28;20034;-67
2021/03/16 01:28:05;;;;;;;16.87;2.53;;;;;;;2.06;100.00;101154.19;5001745;28;20027;-67
2021/03/16 01:30:31;;;;;;;16.73;3.00;;;;;;;2.08;100.00;101146.53;4999651;28;20132;-67
2021/03/16 01:32:57;;;;;;;12.60;2.57;;;;;;;2.08;100.00;101144.81;5004588;28;20816;-67
2021/03/16 01:35:22;;;;;;;16.83;2.73;;;;;;;2.03;100.00;101148.88;5000373;28;20360;-67
2021/03/16 01:37:57;;;;;;;8.73;2.57;;;;;;;1.99;100.00;101149.56;4998842;28;20030;-67
2021/03/16 01:40:38;;;;;;;15.03;2.77;;;;;;;1.94;100.00;101153.63;4999866;28;20093;-67
2021/03/16 01:43:06;;;;;;;18.57;2.60;;;;;;;1.90;100.00;101156.91;4994881;28;20272;-67
2021/03/16 01:45:32;;;;;;;16.07;3.53;;;;;;;1.87;100.00;101149.03;5000331;28;20292;-67
2021/03/16 01:47:57;;;;;;;20.07;3.60;;;;;;;1.96;100.00;101152.03;5001844;28;20277;-67
2021/03/16 01:50:23;;;;;;;25.10;5.00;;;;;;;1.88;100.00;101159.41;4999073;28;20679;-67
2021/03/16 01:52:51;;;;;;;19.00;3.63;;;;;;;1.83;100.00;101165.22;5003042;28;20026;-67
2021/03/16 01:55:17;;;;;;;16.57;2.50;;;;;;;1.86;100.00;101160.19;5000539;28;20030;-67
2021/03/16 01:57:46;;;;;;;19.33;2.77;;;;;;;1.95;100.00;101155.44;5000910;28;20303;-67
2021/03/16 02:00:12;;;;;;;18.13;3.17;;;;;;;2.10;100.00;101166.41;5007801;28;20288;-67
2021/03/16 02:02:38;;;;;;;12.67;2.73;;;;;;;2.26;100.00;101163.66;5003669;28;20645;-68
2021/03/16 02:05:11;;;;;;;27.60;3.47;;;;;;;2.38;100.00;101162.41;4997579;28;20078;-68
2021/03/16 02:08:04;;;;;;;22.93;2.67;;;;;;;2.47;100.00;101168.84;5006268;28;20402;-68
2021/03/16 02:10:53;;;;;;;12.97;2.40;;;;;;;2.48;100.00;101161.97;4990772;28;20296;-68
2021/03/16 02:16:01;;;;;;;17.37;3.03;;;;;;;2.51;100.00;101162.97;5012605;23;20310;-76
2021/03/16 02:18:33;;;;;;;17.23;3.37;;;;;;;2.55;100.00;101166.59;4990031;28;20316;-76
2021/03/16 02:21:05;;;;;;;12.30;2.42;;;;;;;2.56;100.00;101171.81;4991487;28;20309;-76
2021/03/16 02:23:36;;;;;;;18.80;2.90;;;;;;;2.62;100.00;101171.16;4993495;28;20181;-76
2021/03/16 02:26:36;;;;;;;11.23;2.40;;;;;;;2.76;100.00;101177.75;4989396;28;20030;-76
2021/03/16 02:29:09;;;;;;;12.83;2.47;;;;;;;2.80;100.00;101182.25;4988150;28;20340;-76
2021/03/16 02:31:38;;;;;;;11.67;2.57;;;;;;;2.86;100.00;101190.22;4990054;28;20331;-76
2021/03/16 02:34:05;;;;;;;21.57;3.33;;;;;;;2.88;100.00;101187.72;4989043;28;20281;-76
2021/03/16 02:36:33;;;;;;;17.33;2.47;;;;;;;2.94;100.00;101185.38;4992951;28;20308;-76
2021/03/16 02:39:03;;;;;;;23.30;3.53;;;;;;;3.02;100.00;101196.00;4988000;28;20301;-76
2021/03/16 02:41:30;;;;;;;10.30;2.27;;;;;;;3.08;100.00;101197.13;4988787;28;20368;-76
2021/03/16 02:43:56;;;;;;;12.00;2.53;;;;;;;3.10;100.00;101194.63;4990191;28;20289;-76
2021/03/16 02:46:23;;;;;;;16.33;3.27;;;;;;;3.15;100.00;101199.16;4993376;28;20347;-76
2021/03/16 02:48:49;;;;;;;22.67;3.63;;;;;;;3.19;100.00;101195.88;4989378;28;20018;-76
2021/03/16 02:51:16;;;;;;;8.17;2.10;;;;;;;3.21;100.00;101203.66;4992191;28;20285;-76
2021/03/16 02:53:42;;;;;;;10.43;1.93;;;;;;;3.23;100.00;101207.19;4991285;28;20286;-76
2021/03/16 02:56:08;;;;;;;14.03;3.00;;;;;;;3.31;100.00;101213.56;4989907;28;20308;-76
2021/03/16 02:58:35;;;;;;;9.97;2.37;;;;;;;3.34;100.00;101211.06;4990932;28;20285;-76
2021/03/16 03:01:01;;;;;;;15.53;2.43;;;;;;;3.38;100.00;101212.06;4993345;28;20285;-76
2021/03/16 03:03:29;;;;;;;16.70;2.47;;;;;;;3.43;100.00;101206.28;4992353;28;20277;-77
2021/03/16 03:05:56;;;;;;;11.47;2.33;;;;;;;3.47;100.00;101207.25;4991663;28;20269;-78
2021/03/16 03:08:23;;;;;;;10.27;2.87;;;;;;;3.49;100.00;101206.50;4988598;28;20352;-76
2021/03/16 03:10:49;;;;;;;11.90;2.43;;;;;;;3.56;100.00;101207.63;4989711;28;20277;-77
2021/03/16 03:13:14;;;;;;;13.90;2.20;;;;;;;3.59;100.00;101217.19;4988006;28;20823;-77
2021/03/16 03:15:40;;;;;;;10.20;2.13;;;;;;;3.65;100.00;101212.25;4988548;28;20092;-77
2021/03/16 03:18:05;;;;;;;11.23;1.90;;;;;;;3.67;100.00;101224.41;4994491;28;20698;-77
2021/03/16 03:20:34;;;;;;;12.33;3.17;;;;;;;3.71;100.00;101228.00;4988592;28;20561;-77
2021/03/16 03:23:22;;;;;;;14.87;2.40;;;;;;;3.76;100.00;101226.47;4987365;28;20030;-77
2021/03/16 03:26:01;;;;;;;21.00;2.53;;;;;;;3.82;100.00;101230.16;4990327;28;20289;-77
2021/03/16 03:28:34;;;;;;;13.03;2.87;;;;;;;3.85;100.00;101228.50;4990398;28;20348;-77
2021/03/16 03:31:01;;;;;;;13.18;2.08;;;;;;;3.84;100.00;101232.78;4992403;28;20273;-77
2021/03/16 03:33:29;;;;;;;9.77;2.10;;;;;;;3.85;100.00;101237.16;4992198;28;20096;-77
2021/03/16 03:35:54;;;;;;;11.40;3.00;;;;;;;3.93;100.00;101234.84;4987268;28;20739;-77
2021/03/16 03:38:22;;;;;;;17.20;3.07;;;;;;;3.98;100.00;101243.66;4992212;28;20273;-77
2021/03/16 03:40:49;;;;;;;13.43;1.90;;;;;;;4.03;100.00;101248.19;4991243;28;20054;-78
2021/03/16 03:43:17;;;;;;;9.57;1.93;;;;;;;4.08;100.00;101256.09;4980274;28;20288;-78
2021/03/16 03:45:45;;;;;;;14.47;2.10;;;;;;;4.15;100.00;101257.22;4991811;28;20328;-78
2021/03/16 03:48:13;;;;;;;15.90;3.33;;;;;;;4.11;100.00;101258.81;4985677;28;20288;-78
2021/03/16 03:50:40;;;;;;;10.23;1.80;;;;;;;4.08;100.00;101257.00;4987109;28;20351;-78
2021/03/16 03:53:06;;;;;;;17.17;2.10;;;;;;;4.00;100.00;101261.03;4985915;28;20314;-76
2021/03/16 03:55:33;;;;;;;17.23;2.17;;;;;;;3.90;100.00;101256.31;4992868;28;20622;-76
2021/03/16 03:57:59;;;;;;;8.03;1.83;;;;;;;3.80;100.00;101260.25;4985807;28;20293;-76
2021/03/16 04:00:25;;;;;;;11.33;2.20;;;;;;;3.85;100.00;101267.31;4992821;28;20348;-77
2021/03/16 04:02:53;;;;;;;17.17;1.87;;;;;;;3.83;100.00;101272.44;4991782;28;20274;-77
2021/03/16 04:05:19;;;;;;;10.87;2.10;;;;;;;3.96;100.00;101273.78;4990712;28;20365;-77
2021/03/16 04:07:45;;;;;;;8.77;2.00;;;;;;;3.96;100.00;101272.06;4983713;28;20302;-77
2021/03/16 04:10:12;;;;;;;10.70;1.47;;;;;;;3.94;100.00;101273.72;4985078;28;20274;-77
2021/03/16 04:12:38;;;;;;;15.40;1.80;;;;;;;3.90;100.00;101276.13;4991812;28;20375;-77
2021/03/16 04:15:10;;;;;;;9.77;2.20;;;;;;;3.89;100.00;101271.78;4985022;28;20293;-76
2021/03/16 04:17:36;;;;;;;10.50;1.80;;;;;;;3.90;100.00;101274.44;4991963;28;20827;-77
2021/03/16 04:20:04;;;;;;;9.17;1.30;;;;;;;3.90;100.00;101282.19;4988993;28;20637;-77
2021/03/16 04:22:30;;;;;;;5.60;1.60;;;;;;;3.94;100.00;101278.88;4988066;28;20364;-77
2021/03/16 04:24:56;;;;;;;11.87;2.37;;;;;;;3.93;100.00;101271.94;4982689;28;20362;-77
2021/03/16 04:27:25;;;;;;;13.17;2.00;;;;;;;3.94;100.00;101272.84;4990840;28;20386;-77
2021/03/16 04:29:51;;;;;;;13.03;2.17;;;;;;;3.99;100.00;101279.94;4989292;28;20336;-77
2021/03/16 04:32:17;;;;;;;8.93;2.07;;;;;;;4.00;100.00;101289.47;4985301;28;20281;-77
2021/03/16 04:34:43;;;;;;;13.77;2.17;;;;;;;4.01;100.00;101280.91;4987122;28;20026;-77
2021/03/16 04:37:08;;;;;;;9.17;1.40;;;;;;;4.02;100.00;101293.00;4987794;28;20320;-78
2021/03/16 04:39:34;;;;;;;10.53;1.80;;;;;;;4.09;100.00;101294.97;4990910;28;20109;-77
2021/03/16 04:41:59;;;;;;;7.87;1.43;;;;;;;4.07;100.00;101296.63;4989098;28;20387;-77
2021/03/16 04:44:24;;;;;;;5.47;1.63;;;;;;;4.09;100.00;101305.31;4990734;28;20029;-77
2021/03/16 04:46:50;;;;;;;8.07;1.33;;;;;;;4.10;100.00;101308.78;4989952;28;20545;-77
2021/03/16 04:49:16;;;;;;;13.60;2.90;;;;;;;4.13;100.00;101308.06;4990038;28;20026;-77
2021/03/16 04:51:41;;;;;;;3.27;1.13;;;;;;;4.14;100.00;101300.34;4987411;28;20378;-77
2021/03/16 04:54:06;;;;;;;11.93;1.70;;;;;;;4.18;100.00;101309.09;4986098;28;20030;-77
2021/03/16 04:56:33;;;;;;;8.73;1.30;;;;;;;4.20;100.00;101307.44;4978609;28;20030;-77
2021/03/16 04:58:58;;;;;;;13.90;3.07;;;;;;;4.22;100.00;101310.97;4987929;28;20023;-77
2021/03/16 05:01:24;;;;;;;8.40;2.20;;;;;;;4.21;100.00;101316.97;4983727;28;20277;-77
2021/03/16 05:03:50;;;;;;;6.70;1.40;;;;;;;4.17;100.00;101313.38;4990302;28;20018;-77
2021/03/16 05:06:15;;;;;;;8.43;1.37;;;;;;;4.22;100.00;101321.31;4995635;28;20030;-77
2021/03/16 05:08:41;;;;;;;6.17;1.40;;;;;;;4.17;100.00;101315.97;4984260;28;20030;-77
2021/03/16 05:11:06;;;;;;;8.00;1.63;;;;;;;4.15;100.00;101324.53;4991850;28;20044;-77
2021/03/16 05:13:32;;;;;;;12.10;1.80;;;;;;;4.14;100.00;101322.75;4984244;28;20022;-77
2021/03/16 05:15:58;;;;;;;14.60;2.07;;;;;;;4.17;100.00;101317.69;4986331;28;20070;-77
2021/03/16 05:18:23;;;;;;;8.67;1.40;;;;;;;4.15;100.00;101327.09;4990762;28;20018;-77
2021/03/16 05:20:48;;;;;;;6.93;1.50;;;;;;;4.14;100.00;101327.94;4988863;28;20355;-77
2021/03/16 05:23:14;;;;;;;7.83;1.30;;;;;;;4.11;100.00;101324.38;4985889;28;20041;-77
2021/03/16 05:25:39;;;;;;;13.50;1.73;;;;;;;4.11;100.00;101328.69;4990356;28;20038;-77
2021/03/16 05:28:05;;;;;;;12.37;2.23;;;;;;;4.14;100.00;101327.94;4985942;28;20437;-77
2021/03/16 05:30:30;;;;;;;11.90;1.73;;;;;;;4.13;100.00;101331.34;4989376;28;20027;-77
2021/03/16 05:33:00;;;;;;;11.97;2.07;;;;;;;4.15;100.00;101324.53;4989304;28;20049;-77
2021/03/16 05:35:26;;;;;;;9.50;1.60;;;;;;;4.20;100.00;101323.84;4984329;28;20085;-77
2021/03/16 05:37:53;;;;;;;8.83;1.23;;;;;;;4.22;100.00;101336.84;4988766;28;20441;-77
2021/03/16 05:40:19;;;;;;;4.67;1.17;;;;;;;4.21;100.00;101329.91;4995852;28;20280;-77
2021/03/16 05:42:45;;;;;;;4.70;1.10;;;;;;;4.23;100.00;101338.59;4987739;28;20638;-78
2021/03/16 05:45:12;;;;;;;10.27;1.87;;;;;;;4.26;100.00;101339.63;4978144;28;20071;-77
2021/03/16 05:47:41;;;;;;;5.43;1.50;;;;;;;4.25;100.00;101336.97;4979458;28;20272;-77
2021/03/16 05:50:07;;;;;;;10.03;1.80;;;;;;;4.27;100.00;101337.91;4984499;28;20388;-77
2021/03/16 05:52:33;;;;;;;10.10;1.83;;;;;;;4.29;100.00;101336.25;4984673;28;20273;-77
2021/03/16 05:54:59;;;;;;;6.97;1.40;;;;;;;4.29;100.00;101339.72;4986564;28;20273;-77
2021/03/16 05:57:26;;;;;;;3.53;1.10;;;;;;;4.33;100.00;101345.91;4989307;28;20034;-77
2021/03/16 05:59:52;;;;;;;8.27;1.27;;;;;;;4.32;100.00;101349.31;4982136;28;20422;-78
2021/03/16 06:02:18;;;;;;;10.33;1.40;;;;;;;4.30;100.00;101354.44;4990027;28;20415;-78
2021/03/16 06:04:45;;;;;;;5.97;1.20;;;;;;;4.33;100.00;101361.44;4981559;28;20467;-78
2021/03/16 06:07:14;;;;;;;10.07;1.73;;;;;;;4.31;100.00;101358.78;4989775;28;20641;-78
2021/03/16 06:09:41;;;;;;;8.93;1.60;;;;;;;4.33;100.00;101356.25;4984342;28;20281;-77
2021/03/16 06:12:08;;;;;;;9.03;1.40;;;;;;;4.32;100.00;101362.25;4988732;28;20741;-77
2021/03/16 06:14:35;;;;;;;11.97;1.30;;;;;;;4.36;100.00;101371.88;4987928;28;20295;-78
2021/03/16 06:17:01;;;;;;;6.67;1.20;;;;;;;4.41;100.00;101366.06;4987222;28;20277;-78
2021/03/16 06:19:36;;;;;;;7.93;1.53;;;;;;;4.49;100.00;101370.66;4985550;28;20343;-78
2021/03/16 06:22:04;;;;;;;5.93;1.17;;;;;;;4.59;100.00;101365.84;4987268;28;20654;-78
2021/03/16 06:24:30;;;;;;;3.43;1.40;;;;;;;4.64;100.00;101374.69;4986471;28;20280;-77
2021/03/16 06:26:56;;;;;;;5.03;1.77;;;;;;;4.68;100.00;101371.38;4983481;28;20646;-77
2021/03/16 06:29:23;;;;;;;2.97;0.90;;;;;;;4.71;100.00;101376.66;4990988;28;20025;-77
2021/03/16 06:31:49;;;;;;;6.97;1.00;;;;;;;4.77;100.00;101372.53;4988346;28;20281;-77
2021/03/16 06:34:25;;;;;;;9.80;1.60;;;;;;;4.85;100.00;101384.06;4997152;28;20260;-77
2021/03/16 06:37:01;;;;;;;5.17;0.80;;;;;;;4.82;100.00;101383.94;4990666;28;20638;-77
2021/03/16 06:39:27;;;;;;;8.03;1.10;;;;;;;4.82;100.00;101383.94;4990820;28;20292;-78
2021/03/16 06:41:54;;;;;;;5.30;1.43;;;;;;;4.79;100.00;101386.44;4989964;28;20373;-77
2021/03/16 06:44:21;;;;;;;4.87;0.70;;;;;;;4.86;100.00;101396.19;4987915;28;20030;-77
2021/03/16 06:46:58;;;;;;;4.33;0.90;;;;;;;4.87;100.00;101400.56;4985355;28;20269;-78
2021/03/16 06:49:25;;;;;;;4.80;0.60;;;;;;;4.84;100.00;101390.94;4986735;28;20782;-77
2021/03/16 06:51:54;;;;;;;3.27;0.70;;;;;;;4.84;100.00;101383.16;4991474;28;20281;-76
2021/03/16 06:54:25;;;;;;;6.73;0.87;;;;;;;4.86;100.00;101386.72;4990551;28;20288;-77
2021/03/16 06:56:55;;;;;;;3.53;1.27;;;;;;;4.94;100.00;101389.56;4990139;28;20281;-77
2021/03/16 06:59:23;;;;;;;3.50;0.80;;;;;;;4.96;100.00;101395.66;4985891;28;20030;-77
2021/03/16 07:01:48;;;;;;;3.73;0.80;;;;;;;4.90;100.00;101391.16;4986433;28;20463;-78
2021/03/16 07:04:15;;;;;;;3.80;1.00;;;;;;;4.93;100.00;101393.84;4986987;28;20032;-78
2021/03/16 07:06:41;;;;;;;4.90;1.73;;;;;;;5.02;100.00;101395.03;4994662;28;20037;-78
2021/03/16 07:09:12;;;;;;;5.43;0.97;;;;;;;4.99;100.00;101395.81;4991291;28;20057;-78
2021/03/16 07:11:46;;;;;;;3.23;0.80;;;;;;;5.17;100.00;101392.97;4987522;28;20030;-78
2021/03/16 07:14:13;;;;;;;4.13;0.80;;;;;;;5.26;100.00;101396.75;4989751;28;20116;-77
2021/03/16 07:16:39;;;;;;;6.53;0.87;;;;;;;5.30;100.00;101400.31;4992958;28;20052;-78
2021/03/16 07:19:06;;;;;;;2.47;0.80;;;;;;;5.44;100.00;101403.38;4989182;28;20042;-78
2021/03/16 07:21:38;;;;;;;3.83;1.30;;;;;;;5.57;100.00;101410.72;4985157;28;20400;-77
2021/03/16 07:24:08;;;;;;;5.47;0.68;;;;;;;6.09;100.00;101407.28;4991402;28;20482;-77
2021/03/16 07:26:35;;;;;;;4.00;1.10;;;;;;;6.74;100.00;101419.63;4987867;28;20157;-78
2021/03/16 07:29:05;;;;;;;5.03;1.07;;;;;;;6.78;100.00;101417.97;4983837;28;20140;-78
2021/03/16 07:31:43;;;;;;;2.80;0.80;;;;;;;6.48;100.00;101415.38;4985513;28;20061;-77
2021/03/16 07:34:12;;;;;;;4.10;0.80;;;;;;;7.99;95.55;101419.38;4989818;28;21734;-78
2021/03/16 07:36:39;;;;;;;7.53;0.90;;;;;;;7.86;93.47;101423.44;4989796;28;20536;-78
2021/03/16 07:39:08;;;;;;;3.03;0.73;;;;;;;8.08;90.79;101424.81;4986151;28;20065;-78
2021/03/16 07:41:36;;;;;;;8.97;0.90;;;;;;;7.12;94.99;101434.50;4984068;28;20076;-77
2021/03/16 07:44:12;;;;;;;3.70;1.00;;;;;;;6.53;100.00;101420.69;4985948;28;20034;-77
2021/03/16 07:46:48;;;;;;;5.97;0.77;;;;;;;7.40;95.34;101416.22;4981752;28;20047;-78
2021/03/16 07:49:16;;;;;;;3.33;1.00;;;;;;;7.50;94.38;101415.59;4984778;28;20462;-78
2021/03/16 07:51:43;;;;;;;4.67;0.90;;;;;;;8.39;90.85;101428.19;4989189;28;20668;-78
2021/03/16 07:54:10;;;;;;;5.20;0.93;;;;;;;8.12;90.48;101421.47;4985075;28;20355;-78
2021/03/16 07:56:37;;;;;;;2.67;0.70;;;;;;;8.74;86.83;101435.03;4986216;28;20023;-79
2021/03/16 07:59:09;;;;;;;2.90;1.00;;;;;;;8.98;87.16;101433.75;4987362;28;20101;-78
2021/03/16 08:01:50;;;;;;;4.93;0.70;;;;;;;8.62;86.71;101433.88;4988142;28;20027;-79
2021/03/16 08:04:15;;;;;;;3.10;0.80;;;;;;;8.76;84.76;101435.94;4984549;28;20038;-76
2021/03/16 08:06:42;;;;;;;7.17;0.90;;;;;;;7.78;90.98;101427.59;4992516;28;20065;-77
2021/03/16 08:09:19;;;;;;;5.37;0.97;;;;;;;7.46;93.33;101426.78;5002266;28;20027;-77
2021/03/16 08:11:45;;;;;;;7.50;0.80;;;;;;;7.02;92.94;101435.97;4975567;28;20014;-77
2021/03/16 08:14:10;;;;;;;7.27;0.97;;;;;;;6.65;95.99;101444.44;4989019;28;20045;-77
2021/03/16 08:16:45;;;;;;;7.00;1.10;;;;;;;6.35;98.02;101437.50;4980645;28;20130;-77
2021/03/16 08:19:11;;;;;;;1.83;0.40;;;;;;;6.12;100.00;101438.50;4981977;28;20380;-77
2021/03/16 08:21:37;;;;;;;3.27;0.80;;;;;;;6.12;100.00;101443.72;4983840;28;20022;-77
2021/03/16 08:24:07;;;;;;;4.77;0.93;;;;;;;6.96;98.67;101454.91;4984770;28;20026;-77
2021/03/16 08:26:38;;;;;;;4.17;0.80;;;;;;;8.09;90.73;101452.63;4983334;28;20042;-77
2021/03/16 08:29:03;;;;;;;5.53;0.63;;;;;;;9.32;83.60;101456.13;4983783;28;20105;-77
2021/03/16 08:31:32;;;;;;;2.43;0.63;;;;;;;9.73;82.81;101467.34;4982261;28;20133;-76
2021/03/16 08:33:58;;;;;;;3.07;0.80;;;;;;;10.48;79.63;101471.19;4985641;28;20406;-77
2021/03/16 08:36:24;;;;;;;4.87;0.90;;;;;;;9.62;82.49;101471.50;4981772;28;20036;-77
2021/03/16 08:38:52;;;;;;;4.50;0.63;;;;;;;8.34;85.53;101474.97;4987763;28;20344;-77
2021/03/16 08:41:17;;;;;;;4.27;1.07;;;;;;;7.47;92.11;101464.97;4985528;28;20538;-77
2021/03/16 08:43:48;;;;;;;2.27;0.50;;;;;;;6.70;94.30;101461.97;4989156;28;20105;-77
2021/03/16 08:46:14;;;;;;;4.07;1.13;;;;;;;6.93;94.76;101454.81;4988860;28;20033;-77
2021/03/16 08:48:42;;;;;;;2.47;0.60;;;;;;;8.56;86.88;101476.31;4977318;28;20011;-76
2021/03/16 08:51:11;;;;;;;2.53;0.70;;;;;;;9.18;82.80;101479.38;4984445;28;20419;-77
2021/03/16 08:53:36;;;;;;;2.97;0.87;;;;;;;8.77;86.72;101470.72;4978215;28;20022;-77
2021/03/16 08:56:02;;;;;;;3.37;0.70;;;;;;;8.13;88.04;101477.06;4985187;28;20014;-77
2021/03/16 08:58:27;;;;;;;5.73;0.90;;;;;;;7.50;89.04;101467.63;4981610;28;20535;-77
2021/03/16 09:00:53;;;;;;;3.63;0.70;;;;;;;7.26;90.79;101469.59;4986285;28;20041;-77
2021/03/16 09:03:28;;;;;;;7.00;0.80;;;;;;;6.93;93.00;101475.63;4981324;28;20037;-77
2021/03/16 09:05:53;;;;;;;8.20;1.30;;;;;;;6.66;96.80;101480.91;4984297;28;20057;-76
2021/03/16 09:08:20;;;;;;;7.13;0.87;;;;;;;6.61;100.00;101477.28;4983079;28;20506;-77
2021/03/16 09:10:48;;;;;;;2.70;0.80;;;;;;;6.86;99.45;101483.19;4982991;28;20030;-77
2021/03/16 09:13:13;;;;;;;3.33;0.87;;;;;;;6.98;100.00;101484.44;4981555;28;20049;-77
2021/03/16 09:15:44;;;;;;;1.90;0.70;;;;;;;6.58;98.78;101486.69;4984960;28;20502;-77
2021/03/16 09:18:12;;;;;;;2.73;0.77;;;;;;;6.75;98.84;101485.47;4983787;28;20022;-77
2021/03/16 09:20:41;;;;;;;2.53;0.90;;;;;;;7.16;95.67;101494.50;4984725;28;20030;-77
2021/03/16 09:23:11;;;;;;;3.57;0.70;;;;;;;7.05;94.04;101496.78;4986010;28;20022;-77
2021/03/16 09:25:42;;;;;;;4.77;1.20;;;;;;;7.07;94.53;101506.34;4992609;28;20014;-77
2021/03/16 09:28:10;;;;;;;7.00;1.47;;;;;;;8.37;88.66;101506.34;4995622;28;20371;-77
2021/03/16 09:30:40;;;;;;;3.53;0.73;;;;;;;9.11;84.13;101514.03;4981296;28;20027;-78
2021/03/16 09:33:09;;;;;;;4.77;1.03;;;;;;;9.76;80.50;101524.84;4978212;28;20030;-77
2021/03/16 09:35:35;;;;;;;7.43;0.80;;;;;;;10.08;80.48;101524.56;4981654;28;20093;-77
2021/03/16 09:38:05;;;;;;;4.67;0.70;;;;;;;9.80;80.24;101512.72;4981497;28;20026;-77
2021/03/16 09:40:37;;;;;;;3.60;0.60;;;;;;;8.93;78.20;101518.84;4977747;28;20046;-77
2021/03/16 09:43:17;;;;;;;4.70;0.80;;;;;;;7.91;82.29;101519.91;4991205;28;20105;-78
2021/03/16 09:45:51;;;;;;;5.63;0.80;;;;;;;7.60;81.70;101513.91;4980353;28;20033;-77
2021/03/16 09:48:18;;;;;;;3.97;0.63;;;;;;;7.77;84.73;101521.28;4980254;28;20023;-76
2021/03/16 09:50:45;;;;;;;6.77;0.80;;;;;;;7.49;83.34;101519.66;4981925;28;20049;-77
2021/03/16 09:53:15;;;;;;;4.73;0.80;;;;;;;7.64;83.21;101510.56;4985849;28;20387;-78
2021/03/16 09:55:42;;;;;;;5.17;0.93;;;;;;;7.47;82.02;101522.22;4983120;28;20014;-78
2021/03/16 09:58:19;;;;;;;7.43;1.10;;;;;;;7.58;84.40;101514.69;4980479;28;20034;-78
2021/03/16 10:00:49;;;;;;;3.43;0.77;;;;;;;7.60;83.46;101508.69;4984247;28;20019;-77
2021/03/16 10:03:16;;;;;;;5.60;0.90;;;;;;;7.75;83.89;101520.34;4980933;28;20085;-77
2021/03/16 10:05:42;;;;;;;2.63;0.97;;;;;;;7.97;81.69;101512.25;4985538;28;20033;-78
2021/03/16 10:08:07;;;;;;;5.03;0.83;;;;;;;7.87;82.83;101518.06;4998446;28;20022;-77
2021/03/16 10:10:37;;;;;;;4.10;0.77;;;;;;;7.81;83.23;101512.69;4982886;28;20157;-78
2021/03/16 10:13:05;;;;;;;2.10;0.80;;;;;;;7.35;82.28;101516.69;4978484;28;20037;-78
2021/03/16 10:15:38;;;;;;;6.20;1.43;;;;;;;7.16;82.70;101519.63;4977289;28;20090;-78
2021/03/16 10:18:07;;;;;;;6.30;1.17;;;;;;;7.19;83.99;101515.38;4980385;28;20018;-78
2021/03/16 10:20:35;;;;;;;7.67;0.97;;;;;;;7.28;83.18;101525.16;4981688;28;20033;-78
2021/03/16 10:23:05;;;;;;;7.90;1.13;;;;;;;7.50;83.31;101516.19;4980093;28;20026;-77
2021/03/16 10:25:34;;;;;;;1.70;0.60;;;;;;;7.32;82.83;101520.06;4987809;28;20030;-78
2021/03/16 10:28:08;;;;;;;4.93;0.90;;;;;;;7.51;83.73;101524.09;4979956;28;20049;-78
2021/03/16 10:30:41;;;;;;;4.53;1.13;;;;;;;7.58;81.73;101523.38;4988922;28;20019;-77
2021/03/16 10:33:08;;;;;;;5.10;0.80;;;;;;;7.91;81.84;101519.91;4984666;28;20486;-78
2021/03/16 10:35:36;;;;;;;4.40;0.70;;;;;;;7.98;79.99;101526.13;4981477;28;20029;-77
2021/03/16 10:38:03;;;;;;;5.03;1.17;;;;;;;8.15;78.86;101517.91;4985480;28;20387;-77
2021/03/16 10:40:29;;;;;;;4.27;0.80;;;;;;;8.57;79.34;101529.34;4985348;28;20360;-77
2021/03/16 10:42:54;;;;;;;3.60;0.87;;;;;;;8.67;77.33;101527.00;4989604;28;20025;-77
2021/03/16 10:45:20;;;;;;;5.23;0.90;;;;;;;8.19;77.11;101521.47;4983359;28;20023;-78
2021/03/16 10:47:46;;;;;;;6.97;1.20;;;;;;;8.32;79.32;101523.53;4982163;28;20165;-78
2021/03/16 10:50:12;;;;;;;2.23;0.73;;;;;;;8.76;76.78;101532.41;4984282;28;20030;-78
2021/03/16 10:52:37;;;;;;;6.00;0.77;;;;;;;9.23;78.40;101529.94;4980328;28;20022;-77
2021/03/16 10:55:03;;;;;;;3.90;0.70;;;;;;;9.18;73.97;101528.06;4973715;28;20103;-77
2021/03/16 10:57:29;;;;;;;7.57;0.90;;;;;;;8.91;74.72;101516.22;4981486;28;20038;-78
2021/03/16 10:59:55;;;;;;;5.67;0.97;;;;;;;8.41;73.48;101528.13;4991102;28;20030;-77
2021/03/16 11:02:20;;;;;;;7.57;0.90;;;;;;;8.41;71.93;101534.22;4980762;28;20069;-77
2021/03/16 11:04:46;;;;;;;6.50;1.10;;;;;;;8.95;71.54;101533.69;4984198;28;20032;-77
2021/03/16 11:07:12;;;;;;;7.87;1.03;;;;;;;9.24;66.85;101536.94;4987280;28;20037;-78
2021/03/16 11:09:37;;;;;;;4.23;0.70;;;;;;;8.80;64.30;101539.44;4981309;28;20032;-78
2021/03/16 11:12:03;;;;;;;5.60;1.57;;;;;;;8.58;64.70;101542.41;4982898;28;20072;-78
2021/03/16 11:14:29;;;;;;;3.57;1.00;;;;;;;8.45;64.83;101538.66;4985311;28;20050;-77
2021/03/16 11:16:54;;;;;;;5.00;0.80;;;;;;;8.19;65.95;101543.19;4988339;28;20320;-78
2021/03/16 11:19:20;;;;;;;6.77;1.30;;;;;;;8.29;65.87;101538.22;4978542;28;20030;-78
2021/03/16 11:21:45;;;;;;;4.40;1.20;;;;;;;8.84;66.73;101539.50;4989054;28;20387;-78
2021/03/16 11:24:12;;;;;;;2.10;0.70;;;;;;;8.84;65.44;101534.28;4993168;28;20073;-78
2021/03/16 11:26:37;;;;;;;3.90;0.83;;;;;;;8.81;66.19;101536.00;4985016;28;20370;-78
2021/03/16 11:29:03;;;;;;;4.40;0.90;;;;;;;8.80;67.77;101539.44;4985581;28;20026;-78